sensor_id;sensor_type;location;lat;lon;timestamp;temperature;humidity
20740;DHT22;10530;49.968;19.844;2022-09-21T00:00:37;9.10;99.90
20740;DHT22;10530;49.968;19.844;2022-09-21T00:05:40;9.10;99.90
20740;DHT22;10530;49.968;19.844;2022-09-21T00:10:48;9.20;99.90
20740;DHT22;10530;49.968;19.844;2022-09-21T00:15:51;9.20;99.90
20740;DHT22;10530;49.968;19.844;2022-09-21T00:20:54;9.20;99.90
20740;DHT22;10530;49.968;19.844;2022-09-21T00:26:05;9.20;99.90
20740;DHT22;10530;49.968;19.844;2022-09-21T00:31:09;9.20;99.90
20740;DHT22;10530;49.968;19.844;2022-09-21T00:36:15;9.10;99.90
20740;DHT22;10530;49.968;19.844;2022-09-21T00:41:20;9.10;99.90
20740;DHT22;10530;49.968;19.844;2022-09-21T00:46:27;9.00;99.90
20740;DHT22;10530;49.968;19.844;2022-09-21T00:51:31;8.90;99.90
20740;DHT22;10530;49.968;19.844;2022-09-21T00:56:35;8.90;99.90
20740;DHT22;10530;49.968;19.844;2022-09-21T01:01:38;8.80;99.90
20740;DHT22;10530;49.968;19.844;2022-09-21T01:06:41;8.80;99.90
20740;DHT22;10530;49.968;19.844;2022-09-21T01:11:52;8.80;99.90
20740;DHT22;10530;49.968;19.844;2022-09-21T01:17:07;8.80;99.90
20740;DHT22;10530;49.968;19.844;2022-09-21T01:28:12;8.80;99.90
20740;DHT22;10530;49.968;19.844;2022-09-21T01:33:35;8.90;99.90
20740;DHT22;10530;49.968;19.844;2022-09-21T01:38:49;9.00;99.90
20740;DHT22;10530;49.968;19.844;2022-09-21T01:43:54;9.00;99.90
20740;DHT22;10530;49.968;19.844;2022-09-21T01:49:07;9.00;99.90
20740;DHT22;10530;49.968;19.844;2022-09-21T01:54:21;9.10;99.90
20740;DHT22;10530;49.968;19.844;2022-09-21T01:59:30;9.20;99.90
20740;DHT22;10530;49.968;19.844;2022-09-21T02:04:34;9.30;99.90
20740;DHT22;10530;49.968;19.844;2022-09-21T02:09:37;9.30;99.90
20740;DHT22;10530;49.968;19.844;2022-09-21T02:14:40;9.40;99.90
20740;DHT22;10530;49.968;19.844;2022-09-21T02:20:19;9.40;99.90
20740;DHT22;10530;49.968;19.844;2022-09-21T02:30:26;9.50;99.90
20740;DHT22;10530;49.968;19.844;2022-09-21T02:35:50;9.60;99.90
20740;DHT22;10530;49.968;19.844;2022-09-21T02:41:12;9.50;99.90
20740;DHT22;10530;49.968;19.844;2022-09-21T02:46:45;9.50;99.90
20740;DHT22;10530;49.968;19.844;2022-09-21T02:51:55;9.60;99.90
20740;DHT22;10530;49.968;19.844;2022-09-21T02:56:59;9.50;99.90
20740;DHT22;10530;49.968;19.844;2022-09-21T03:02:03;9.50;99.90
20740;DHT22;10530;49.968;19.844;2022-09-21T03:07:07;9.50;99.90
20740;DHT22;10530;49.968;19.844;2022-09-21T03:12:10;9.50;99.90
20740;DHT22;10530;49.968;19.844;2022-09-21T03:17:13;9.50;99.90
20740;DHT22;10530;49.968;19.844;2022-09-21T03:22:16;9.50;99.90
20740;DHT22;10530;49.968;19.844;2022-09-21T03:27:20;9.50;99.90
20740;DHT22;10530;49.968;19.844;2022-09-21T03:32:24;9.50;99.90
20740;DHT22;10530;49.968;19.844;2022-09-21T03:37:28;9.60;99.90
20740;DHT22;10530;49.968;19.844;2022-09-21T03:42:32;9.60;99.90
20740;DHT22;10530;49.968;19.844;2022-09-21T03:47:36;9.50;99.90
20740;DHT22;10530;49.968;19.844;2022-09-21T03:52:39;9.50;99.90
20740;DHT22;10530;49.968;19.844;2022-09-21T03:57:42;9.50;99.90
20740;DHT22;10530;49.968;19.844;2022-09-21T04:02:52;9.50;99.90
20740;DHT22;10530;49.968;19.844;2022-09-21T04:07:55;9.50;99.90
20740;DHT22;10530;49.968;19.844;2022-09-21T04:13:01;9.60;99.90
20740;DHT22;10530;49.968;19.844;2022-09-21T04:18:04;9.60;99.90
20740;DHT22;10530;49.968;19.844;2022-09-21T04:23:07;9.50;99.90
20740;DHT22;10530;49.968;19.844;2022-09-21T04:28:11;9.60;99.90
20740;DHT22;10530;49.968;19.844;2022-09-21T04:33:14;9.50;99.90
20740;DHT22;10530;49.968;19.844;2022-09-21T04:38:17;9.50;99.90
20740;DHT22;10530;49.968;19.844;2022-09-21T04:43:19;9.60;99.90
20740;DHT22;10530;49.968;19.844;2022-09-21T04:48:24;9.50;99.90
20740;DHT22;10530;49.968;19.844;2022-09-21T04:53:27;9.60;99.90
20740;DHT22;10530;49.968;19.844;2022-09-21T04:58:30;9.60;99.90
20740;DHT22;10530;49.968;19.844;2022-09-21T05:03:33;9.60;99.90
20740;DHT22;10530;49.968;19.844;2022-09-21T05:08:36;9.60;99.90
20740;DHT22;10530;49.968;19.844;2022-09-21T05:13:57;9.60;99.90
20740;DHT22;10530;49.968;19.844;2022-09-21T05:19:00;9.60;99.90
20740;DHT22;10530;49.968;19.844;2022-09-21T05:24:03;9.70;99.90
20740;DHT22;10530;49.968;19.844;2022-09-21T05:29:06;9.70;99.90
20740;DHT22;10530;49.968;19.844;2022-09-21T05:39:50;9.70;99.90
20740;DHT22;10530;49.968;19.844;2022-09-21T05:44:53;9.80;99.90
20740;DHT22;10530;49.968;19.844;2022-09-21T05:50:05;9.80;99.90
20740;DHT22;10530;49.968;19.844;2022-09-21T06:00:40;9.70;99.90
20740;DHT22;10530;49.968;19.844;2022-09-21T06:05:44;9.70;99.90
20740;DHT22;10530;49.968;19.844;2022-09-21T06:10:47;9.80;99.90
20740;DHT22;10530;49.968;19.844;2022-09-21T06:15:50;9.80;99.90
20740;DHT22;10530;49.968;19.844;2022-09-21T06:20:53;9.80;99.90
20740;DHT22;10530;49.968;19.844;2022-09-21T06:25:56;9.80;99.90
20740;DHT22;10530;49.968;19.844;2022-09-21T06:31:00;9.80;99.90
20740;DHT22;10530;49.968;19.844;2022-09-21T06:36:03;9.80;99.90
20740;DHT22;10530;49.968;19.844;2022-09-21T06:41:06;9.80;99.90
20740;DHT22;10530;49.968;19.844;2022-09-21T06:46:08;9.80;99.90
20740;DHT22;10530;49.968;19.844;2022-09-21T06:51:11;9.90;99.90
20740;DHT22;10530;49.968;19.844;2022-09-21T06:56:14;10.00;99.90
20740;DHT22;10530;49.968;19.844;2022-09-21T07:01:18;10.00;99.90
20740;DHT22;10530;49.968;19.844;2022-09-21T07:06:21;10.00;99.90
20740;DHT22;10530;49.968;19.844;2022-09-21T07:11:24;10.00;99.90
20740;DHT22;10530;49.968;19.844;2022-09-21T07:16:28;10.00;99.90
20740;DHT22;10530;49.968;19.844;2022-09-21T07:21:32;9.90;99.90
20740;DHT22;10530;49.968;19.844;2022-09-21T07:26:34;9.90;99.90
20740;DHT22;10530;49.968;19.844;2022-09-21T07:31:41;10.00;99.90
20740;DHT22;10530;49.968;19.844;2022-09-21T07:36:44;10.00;99.90
20740;DHT22;10530;49.968;19.844;2022-09-21T07:41:47;10.10;99.90
20740;DHT22;10530;49.968;19.844;2022-09-21T07:46:50;10.20;99.90
20740;DHT22;10530;49.968;19.844;2022-09-21T07:51:53;10.30;99.90
20740;DHT22;10530;49.968;19.844;2022-09-21T07:56:56;10.20;99.90
20740;DHT22;10530;49.968;19.844;2022-09-21T08:02:17;10.40;99.90
20740;DHT22;10530;49.968;19.844;2022-09-21T08:07:20;10.50;99.90
20740;DHT22;10530;49.968;19.844;2022-09-21T08:12:23;10.50;99.90
20740;DHT22;10530;49.968;19.844;2022-09-21T08:17:26;10.50;99.90
20740;DHT22;10530;49.968;19.844;2022-09-21T08:22:29;10.50;99.90
20740;DHT22;10530;49.968;19.844;2022-09-21T08:27:31;10.60;99.90
20740;DHT22;10530;49.968;19.844;2022-09-21T08:32:34;10.50;99.90
20740;DHT22;10530;49.968;19.844;2022-09-21T08:37:52;10.90;99.90
20740;DHT22;10530;49.968;19.844;2022-09-21T08:43:03;11.00;99.90
20740;DHT22;10530;49.968;19.844;2022-09-21T08:48:24;11.00;99.90
20740;DHT22;10530;49.968;19.844;2022-09-21T08:53:38;10.90;99.90
20740;DHT22;10530;49.968;19.844;2022-09-21T08:58:43;10.70;99.90
20740;DHT22;10530;49.968;19.844;2022-09-21T09:09:08;10.90;99.90
20740;DHT22;10530;49.968;19.844;2022-09-21T09:25:37;11.00;99.90
20740;DHT22;10530;49.968;19.844;2022-09-21T09:30:41;11.30;99.90
20740;DHT22;10530;49.968;19.844;2022-09-21T09:35:48;11.60;99.90
20740;DHT22;10530;49.968;19.844;2022-09-21T09:51:33;11.20;99.90
20740;DHT22;10530;49.968;19.844;2022-09-21T09:56:39;11.30;99.90
20740;DHT22;10530;49.968;19.844;2022-09-21T10:01:44;11.30;99.90
20740;DHT22;10530;49.968;19.844;2022-09-21T10:06:48;11.40;99.90
20740;DHT22;10530;49.968;19.844;2022-09-21T10:11:52;11.50;99.90
20740;DHT22;10530;49.968;19.844;2022-09-21T10:17:03;11.40;99.90
20740;DHT22;10530;49.968;19.844;2022-09-21T10:22:15;11.30;99.90
20740;DHT22;10530;49.968;19.844;2022-09-21T10:27:26;11.70;99.90
20740;DHT22;10530;49.968;19.844;2022-09-21T10:32:30;12.00;99.90
20740;DHT22;10530;49.968;19.844;2022-09-21T10:37:35;12.20;99.90
20740;DHT22;10530;49.968;19.844;2022-09-21T10:42:45;12.00;99.90
20740;DHT22;10530;49.968;19.844;2022-09-21T10:47:56;11.90;99.90
20740;DHT22;10530;49.968;19.844;2022-09-21T10:58:13;12.20;99.90
20740;DHT22;10530;49.968;19.844;2022-09-21T11:09:01;12.20;99.90
20740;DHT22;10530;49.968;19.844;2022-09-21T11:14:26;12.40;99.90
20740;DHT22;10530;49.968;19.844;2022-09-21T11:30:11;12.50;99.90
20740;DHT22;10530;49.968;19.844;2022-09-21T11:35:55;12.40;99.90
20740;DHT22;10530;49.968;19.844;2022-09-21T11:41:31;12.80;99.90
20740;DHT22;10530;49.968;19.844;2022-09-21T11:57:38;14.20;99.90
20740;DHT22;10530;49.968;19.844;2022-09-21T12:03:19;14.00;99.90
20740;DHT22;10530;49.968;19.844;2022-09-21T12:14:21;16.80;99.90
20740;DHT22;10530;49.968;19.844;2022-09-21T12:19:40;17.60;99.90
20740;DHT22;10530;49.968;19.844;2022-09-21T12:24:53;17.30;99.90
20740;DHT22;10530;49.968;19.844;2022-09-21T12:30:11;18.40;99.90
20740;DHT22;10530;49.968;19.844;2022-09-21T12:35:18;17.30;99.90
20740;DHT22;10530;49.968;19.844;2022-09-21T12:45:47;15.50;99.90
20740;DHT22;10530;49.968;19.844;2022-09-21T12:50:56;15.50;99.90
20740;DHT22;10530;49.968;19.844;2022-09-21T13:01:21;15.50;99.90
20740;DHT22;10530;49.968;19.844;2022-09-21T13:06:59;15.00;99.90
20740;DHT22;10530;49.968;19.844;2022-09-21T13:12:13;14.50;99.90
20740;DHT22;10530;49.968;19.844;2022-09-21T13:17:22;14.00;99.90
20740;DHT22;10530;49.968;19.844;2022-09-21T13:22:28;13.80;99.90
20740;DHT22;10530;49.968;19.844;2022-09-21T13:27:55;15.70;99.90
20740;DHT22;10530;49.968;19.844;2022-09-21T13:33:27;17.10;99.90
20740;DHT22;10530;49.968;19.844;2022-09-21T13:38:56;17.30;99.90
20740;DHT22;10530;49.968;19.844;2022-09-21T13:44:19;16.90;99.90
20740;DHT22;10530;49.968;19.844;2022-09-21T13:54:54;16.60;99.90
20740;DHT22;10530;49.968;19.844;2022-09-21T14:10:40;17.10;99.90
20740;DHT22;10530;49.968;19.844;2022-09-21T14:15:43;17.20;99.90
20740;DHT22;10530;49.968;19.844;2022-09-21T14:21:12;17.10;99.90
20740;DHT22;10530;49.968;19.844;2022-09-21T14:26:33;17.70;99.90
20740;DHT22;10530;49.968;19.844;2022-09-21T14:31:37;17.30;99.90
20740;DHT22;10530;49.968;19.844;2022-09-21T14:36:45;16.40;99.90
20740;DHT22;10530;49.968;19.844;2022-09-21T14:41:52;15.50;99.90
20740;DHT22;10530;49.968;19.844;2022-09-21T14:57:58;12.70;99.90
20740;DHT22;10530;49.968;19.844;2022-09-21T15:14:37;12.00;99.90
20740;DHT22;10530;49.968;19.844;2022-09-21T15:19:43;11.90;99.90
20740;DHT22;10530;49.968;19.844;2022-09-21T15:24:54;11.70;99.90
20740;DHT22;10530;49.968;19.844;2022-09-21T15:29:57;11.70;99.90
20740;DHT22;10530;49.968;19.844;2022-09-21T15:35:04;11.80;99.90
20740;DHT22;10530;49.968;19.844;2022-09-21T15:40:20;11.80;99.90
20740;DHT22;10530;49.968;19.844;2022-09-21T15:45:26;11.90;99.90
20740;DHT22;10530;49.968;19.844;2022-09-21T15:50:30;11.80;99.90
20740;DHT22;10530;49.968;19.844;2022-09-21T15:55:32;11.60;99.90
20740;DHT22;10530;49.968;19.844;2022-09-21T16:00:35;11.40;99.90
20740;DHT22;10530;49.968;19.844;2022-09-21T16:10:50;11.30;99.90
20740;DHT22;10530;49.968;19.844;2022-09-21T16:16:05;11.20;99.90
20740;DHT22;10530;49.968;19.844;2022-09-21T16:26:28;11.20;99.90
20740;DHT22;10530;49.968;19.844;2022-09-21T16:31:33;11.10;99.90
20740;DHT22;10530;49.968;19.844;2022-09-21T16:36:39;11.20;99.90
20740;DHT22;10530;49.968;19.844;2022-09-21T16:41:51;11.20;99.90
20740;DHT22;10530;49.968;19.844;2022-09-21T16:47:00;11.00;99.90
20740;DHT22;10530;49.968;19.844;2022-09-21T16:52:04;11.00;99.90
20740;DHT22;10530;49.968;19.844;2022-09-21T16:57:10;10.80;99.90
20740;DHT22;10530;49.968;19.844;2022-09-21T17:02:15;10.60;99.90
20740;DHT22;10530;49.968;19.844;2022-09-21T17:07:18;10.60;99.90
20740;DHT22;10530;49.968;19.844;2022-09-21T17:12:22;10.50;99.90
20740;DHT22;10530;49.968;19.844;2022-09-21T17:17:26;10.50;99.90
20740;DHT22;10530;49.968;19.844;2022-09-21T17:22:30;10.50;99.90
20740;DHT22;10530;49.968;19.844;2022-09-21T17:27:33;10.50;99.90
20740;DHT22;10530;49.968;19.844;2022-09-21T17:32:36;10.50;99.90
20740;DHT22;10530;49.968;19.844;2022-09-21T17:37:40;10.50;99.90
20740;DHT22;10530;49.968;19.844;2022-09-21T17:42:43;10.50;99.90
20740;DHT22;10530;49.968;19.844;2022-09-21T17:47:47;10.50;99.90
20740;DHT22;10530;49.968;19.844;2022-09-21T17:52:52;10.50;99.90
20740;DHT22;10530;49.968;19.844;2022-09-21T18:03:38;10.40;99.90
20740;DHT22;10530;49.968;19.844;2022-09-21T18:08:43;10.40;99.90
20740;DHT22;10530;49.968;19.844;2022-09-21T18:24:45;10.50;99.90
20740;DHT22;10530;49.968;19.844;2022-09-21T18:29:48;10.40;99.90
20740;DHT22;10530;49.968;19.844;2022-09-21T18:45:46;10.20;99.90
20740;DHT22;10530;49.968;19.844;2022-09-21T18:56:03;10.00;99.90
20740;DHT22;10530;49.968;19.844;2022-09-21T19:01:12;9.90;99.90
20740;DHT22;10530;49.968;19.844;2022-09-21T19:27:45;9.90;99.90
20740;DHT22;10530;49.968;19.844;2022-09-21T19:32:53;9.80;99.90
20740;DHT22;10530;49.968;19.844;2022-09-21T19:38:07;9.70;99.90
20740;DHT22;10530;49.968;19.844;2022-09-21T19:43:40;9.80;99.90
20740;DHT22;10530;49.968;19.844;2022-09-21T19:48:47;9.70;99.90
20740;DHT22;10530;49.968;19.844;2022-09-21T19:53:56;9.70;99.90
20740;DHT22;10530;49.968;19.844;2022-09-21T19:59:18;9.70;99.90
20740;DHT22;10530;49.968;19.844;2022-09-21T20:04:51;9.70;99.90
20740;DHT22;10530;49.968;19.844;2022-09-21T20:10:22;9.60;99.90
20740;DHT22;10530;49.968;19.844;2022-09-21T20:15:32;9.70;99.90
20740;DHT22;10530;49.968;19.844;2022-09-21T20:20:37;9.80;99.90
20740;DHT22;10530;49.968;19.844;2022-09-21T20:25:55;9.80;99.90
20740;DHT22;10530;49.968;19.844;2022-09-21T20:30:59;9.80;99.90
20740;DHT22;10530;49.968;19.844;2022-09-21T20:36:02;9.70;99.90
20740;DHT22;10530;49.968;19.844;2022-09-21T20:41:14;9.70;99.90
20740;DHT22;10530;49.968;19.844;2022-09-21T20:46:17;9.80;99.90
20740;DHT22;10530;49.968;19.844;2022-09-21T20:51:20;9.80;99.90
20740;DHT22;10530;49.968;19.844;2022-09-21T20:56:23;9.70;99.90
20740;DHT22;10530;49.968;19.844;2022-09-21T21:01:26;9.70;99.90
20740;DHT22;10530;49.968;19.844;2022-09-21T21:06:28;9.70;99.90
20740;DHT22;10530;49.968;19.844;2022-09-21T21:11:32;9.80;99.90
20740;DHT22;10530;49.968;19.844;2022-09-21T21:16:35;9.80;99.90
20740;DHT22;10530;49.968;19.844;2022-09-21T21:21:38;9.70;99.90
20740;DHT22;10530;49.968;19.844;2022-09-21T21:26:41;9.80;99.90
20740;DHT22;10530;49.968;19.844;2022-09-21T21:32:04;9.80;99.90
20740;DHT22;10530;49.968;19.844;2022-09-21T21:37:06;9.80;99.90
20740;DHT22;10530;49.968;19.844;2022-09-21T21:42:10;9.80;99.90
20740;DHT22;10530;49.968;19.844;2022-09-21T21:47:13;9.80;99.90
20740;DHT22;10530;49.968;19.844;2022-09-21T21:52:36;9.70;99.90
20740;DHT22;10530;49.968;19.844;2022-09-21T21:57:39;9.70;99.90
20740;DHT22;10530;49.968;19.844;2022-09-21T22:02:41;9.70;99.90
20740;DHT22;10530;49.968;19.844;2022-09-21T22:07:44;9.70;99.90
20740;DHT22;10530;49.968;19.844;2022-09-21T22:12:47;9.60;99.90
20740;DHT22;10530;49.968;19.844;2022-09-21T22:17:49;9.70;99.90
20740;DHT22;10530;49.968;19.844;2022-09-21T22:22:52;9.70;99.90
20740;DHT22;10530;49.968;19.844;2022-09-21T22:27:55;9.70;99.90
20740;DHT22;10530;49.968;19.844;2022-09-21T22:32:57;9.70;99.90
20740;DHT22;10530;49.968;19.844;2022-09-21T22:38:00;9.70;99.90
20740;DHT22;10530;49.968;19.844;2022-09-21T22:43:03;9.70;99.90
20740;DHT22;10530;49.968;19.844;2022-09-21T22:48:05;9.70;99.90
20740;DHT22;10530;49.968;19.844;2022-09-21T22:53:08;9.70;99.90
20740;DHT22;10530;49.968;19.844;2022-09-21T22:58:11;9.70;99.90
20740;DHT22;10530;49.968;19.844;2022-09-21T23:03:14;9.70;99.90
20740;DHT22;10530;49.968;19.844;2022-09-21T23:08:17;9.60;99.90
20740;DHT22;10530;49.968;19.844;2022-09-21T23:13:20;9.60;99.90
20740;DHT22;10530;49.968;19.844;2022-09-21T23:18:23;9.60;99.90
20740;DHT22;10530;49.968;19.844;2022-09-21T23:23:26;9.60;99.90
20740;DHT22;10530;49.968;19.844;2022-09-21T23:28:29;9.60;99.90
20740;DHT22;10530;49.968;19.844;2022-09-21T23:33:34;9.50;99.90
20740;DHT22;10530;49.968;19.844;2022-09-21T23:38:38;9.50;99.90
20740;DHT22;10530;49.968;19.844;2022-09-21T23:43:43;9.50;99.90
20740;DHT22;10530;49.968;19.844;2022-09-21T23:48:46;9.50;99.90
20740;DHT22;10530;49.968;19.844;2022-09-21T23:53:49;9.50;99.90
20740;DHT22;10530;49.968;19.844;2022-09-21T23:58:52;9.50;99.90
